sensor_id;sensor_type;location;lat;lon;timestamp;temperature;humidity
67273;DHT22;54190;49.770;9.250;2023-05-20T00:00:08;14.30;99.90
67273;DHT22;54190;49.770;9.250;2023-05-20T00:02:34;14.20;99.90
67273;DHT22;54190;49.770;9.250;2023-05-20T00:04:59;14.20;99.90
67273;DHT22;54190;49.770;9.250;2023-05-20T00:07:25;14.20;99.90
67273;DHT22;54190;49.770;9.250;2023-05-20T00:09:51;14.10;99.90
67273;DHT22;54190;49.770;9.250;2023-05-20T00:12:16;14.00;99.90
67273;DHT22;54190;49.770;9.250;2023-05-20T00:14:42;13.90;99.90
67273;DHT22;54190;49.770;9.250;2023-05-20T00:17:08;13.90;99.90
67273;DHT22;54190;49.770;9.250;2023-05-20T00:19:33;13.90;99.90
67273;DHT22;54190;49.770;9.250;2023-05-20T00:21:59;13.80;99.90
67273;DHT22;54190;49.770;9.250;2023-05-20T00:24:26;13.80;99.90
67273;DHT22;54190;49.770;9.250;2023-05-20T00:26:54;13.80;99.90
67273;DHT22;54190;49.770;9.250;2023-05-20T00:29:20;13.70;99.90
67273;DHT22;54190;49.770;9.250;2023-05-20T00:31:47;13.60;99.90
67273;DHT22;54190;49.770;9.250;2023-05-20T00:34:13;13.60;99.90
67273;DHT22;54190;49.770;9.250;2023-05-20T00:36:38;13.60;99.90
67273;DHT22;54190;49.770;9.250;2023-05-20T00:39:04;13.60;99.90
67273;DHT22;54190;49.770;9.250;2023-05-20T00:41:30;13.60;99.90
67273;DHT22;54190;49.770;9.250;2023-05-20T00:43:56;13.40;99.90
67273;DHT22;54190;49.770;9.250;2023-05-20T00:46:23;13.40;99.90
67273;DHT22;54190;49.770;9.250;2023-05-20T00:48:50;13.30;99.90
67273;DHT22;54190;49.770;9.250;2023-05-20T00:51:16;13.30;99.90
67273;DHT22;54190;49.770;9.250;2023-05-20T00:53:42;13.30;99.90
67273;DHT22;54190;49.770;9.250;2023-05-20T00:56:08;13.20;99.90
67273;DHT22;54190;49.770;9.250;2023-05-20T00:58:34;13.20;99.90
67273;DHT22;54190;49.770;9.250;2023-05-20T01:01:01;13.20;99.90
67273;DHT22;54190;49.770;9.250;2023-05-20T01:03:28;13.10;99.90
67273;DHT22;54190;49.770;9.250;2023-05-20T01:05:53;13.10;99.90
67273;DHT22;54190;49.770;9.250;2023-05-20T01:08:20;13.10;99.90
67273;DHT22;54190;49.770;9.250;2023-05-20T01:10:50;13.10;99.90
67273;DHT22;54190;49.770;9.250;2023-05-20T01:13:20;13.10;99.90
67273;DHT22;54190;49.770;9.250;2023-05-20T01:15:48;13.10;99.90
67273;DHT22;54190;49.770;9.250;2023-05-20T01:18:15;13.00;99.90
67273;DHT22;54190;49.770;9.250;2023-05-20T01:20:45;13.00;99.90
67273;DHT22;54190;49.770;9.250;2023-05-20T01:23:12;13.00;99.90
67273;DHT22;54190;49.770;9.250;2023-05-20T01:25:40;12.90;99.90
67273;DHT22;54190;49.770;9.250;2023-05-20T01:28:06;12.90;99.90
67273;DHT22;54190;49.770;9.250;2023-05-20T01:30:38;12.90;99.90
67273;DHT22;54190;49.770;9.250;2023-05-20T01:33:09;13.00;99.90
67273;DHT22;54190;49.770;9.250;2023-05-20T01:35:38;13.00;99.90
67273;DHT22;54190;49.770;9.250;2023-05-20T01:38:05;12.90;99.90
67273;DHT22;54190;49.770;9.250;2023-05-20T01:40:33;12.90;99.90
67273;DHT22;54190;49.770;9.250;2023-05-20T01:43:03;12.90;99.90
67273;DHT22;54190;49.770;9.250;2023-05-20T01:45:30;12.90;99.90
67273;DHT22;54190;49.770;9.250;2023-05-20T01:47:55;12.90;99.90
67273;DHT22;54190;49.770;9.250;2023-05-20T01:50:21;12.90;99.90
67273;DHT22;54190;49.770;9.250;2023-05-20T01:52:47;12.90;99.90
67273;DHT22;54190;49.770;9.250;2023-05-20T01:55:12;12.80;99.90
67273;DHT22;54190;49.770;9.250;2023-05-20T01:57:38;12.70;99.90
67273;DHT22;54190;49.770;9.250;2023-05-20T02:00:04;12.70;99.90
67273;DHT22;54190;49.770;9.250;2023-05-20T02:02:38;12.70;99.90
67273;DHT22;54190;49.770;9.250;2023-05-20T02:05:04;12.70;99.90
67273;DHT22;54190;49.770;9.250;2023-05-20T02:07:30;12.80;99.90
67273;DHT22;54190;49.770;9.250;2023-05-20T02:09:56;12.80;99.90
67273;DHT22;54190;49.770;9.250;2023-05-20T02:12:21;12.80;99.90
67273;DHT22;54190;49.770;9.250;2023-05-20T02:14:47;12.80;99.90
67273;DHT22;54190;49.770;9.250;2023-05-20T02:17:16;12.90;99.90
67273;DHT22;54190;49.770;9.250;2023-05-20T02:19:43;12.80;99.90
67273;DHT22;54190;49.770;9.250;2023-05-20T02:22:09;12.90;99.90
67273;DHT22;54190;49.770;9.250;2023-05-20T02:24:34;12.90;99.90
67273;DHT22;54190;49.770;9.250;2023-05-20T02:27:00;12.90;99.90
67273;DHT22;54190;49.770;9.250;2023-05-20T02:29:27;12.80;99.90
67273;DHT22;54190;49.770;9.250;2023-05-20T02:31:53;12.80;99.90
67273;DHT22;54190;49.770;9.250;2023-05-20T02:34:20;12.70;99.90
67273;DHT22;54190;49.770;9.250;2023-05-20T02:36:46;12.70;99.90
67273;DHT22;54190;49.770;9.250;2023-05-20T02:39:11;12.80;99.90
67273;DHT22;54190;49.770;9.250;2023-05-20T02:41:37;12.70;99.90
67273;DHT22;54190;49.770;9.250;2023-05-20T02:44:03;12.70;99.90
67273;DHT22;54190;49.770;9.250;2023-05-20T02:46:30;12.80;99.90
67273;DHT22;54190;49.770;9.250;2023-05-20T02:48:55;12.80;99.90
67273;DHT22;54190;49.770;9.250;2023-05-20T02:51:22;12.80;99.90
67273;DHT22;54190;49.770;9.250;2023-05-20T02:53:48;12.80;99.90
67273;DHT22;54190;49.770;9.250;2023-05-20T02:56:14;12.70;99.90
67273;DHT22;54190;49.770;9.250;2023-05-20T02:58:40;12.70;99.90
67273;DHT22;54190;49.770;9.250;2023-05-20T03:01:06;12.70;99.90
67273;DHT22;54190;49.770;9.250;2023-05-20T03:03:32;12.70;99.90
67273;DHT22;54190;49.770;9.250;2023-05-20T03:05:58;12.70;99.90
67273;DHT22;54190;49.770;9.250;2023-05-20T03:08:24;12.80;99.90
67273;DHT22;54190;49.770;9.250;2023-05-20T03:10:49;12.80;99.90
67273;DHT22;54190;49.770;9.250;2023-05-20T03:13:15;12.80;99.90
67273;DHT22;54190;49.770;9.250;2023-05-20T03:15:41;12.80;99.90
67273;DHT22;54190;49.770;9.250;2023-05-20T03:18:10;12.90;99.90
67273;DHT22;54190;49.770;9.250;2023-05-20T03:20:37;12.90;99.90
67273;DHT22;54190;49.770;9.250;2023-05-20T03:23:05;12.80;99.90
67273;DHT22;54190;49.770;9.250;2023-05-20T03:25:31;12.80;99.90
67273;DHT22;54190;49.770;9.250;2023-05-20T03:27:56;12.80;99.90
67273;DHT22;54190;49.770;9.250;2023-05-20T03:30:28;12.90;99.90
67273;DHT22;54190;49.770;9.250;2023-05-20T03:32:55;12.80;99.90
67273;DHT22;54190;49.770;9.250;2023-05-20T03:35:25;12.80;99.90
67273;DHT22;54190;49.770;9.250;2023-05-20T03:37:51;12.80;99.90
67273;DHT22;54190;49.770;9.250;2023-05-20T03:40:19;12.80;99.90
67273;DHT22;54190;49.770;9.250;2023-05-20T03:42:47;12.90;99.90
67273;DHT22;54190;49.770;9.250;2023-05-20T03:45:16;13.00;99.90
67273;DHT22;54190;49.770;9.250;2023-05-20T03:47:51;13.00;99.90
67273;DHT22;54190;49.770;9.250;2023-05-20T03:50:17;13.00;99.90
67273;DHT22;54190;49.770;9.250;2023-05-20T03:52:43;13.00;99.90
67273;DHT22;54190;49.770;9.250;2023-05-20T03:55:09;13.10;99.90
67273;DHT22;54190;49.770;9.250;2023-05-20T03:57:35;13.10;99.90
67273;DHT22;54190;49.770;9.250;2023-05-20T04:00:02;13.10;99.90
67273;DHT22;54190;49.770;9.250;2023-05-20T04:02:30;13.10;99.90
67273;DHT22;54190;49.770;9.250;2023-05-20T04:04:56;13.10;99.90
67273;DHT22;54190;49.770;9.250;2023-05-20T04:07:22;13.10;99.90
67273;DHT22;54190;49.770;9.250;2023-05-20T04:09:48;13.10;99.90
67273;DHT22;54190;49.770;9.250;2023-05-20T04:12:14;13.10;99.90
67273;DHT22;54190;49.770;9.250;2023-05-20T04:14:40;13.20;99.90
67273;DHT22;54190;49.770;9.250;2023-05-20T04:17:07;13.20;99.90
67273;DHT22;54190;49.770;9.250;2023-05-20T04:19:32;13.30;99.90
67273;DHT22;54190;49.770;9.250;2023-05-20T04:21:59;13.30;99.90
67273;DHT22;54190;49.770;9.250;2023-05-20T04:24:25;13.40;99.90
67273;DHT22;54190;49.770;9.250;2023-05-20T04:26:52;13.30;99.90
67273;DHT22;54190;49.770;9.250;2023-05-20T04:29:18;13.30;99.90
67273;DHT22;54190;49.770;9.250;2023-05-20T04:31:47;13.40;99.90
67273;DHT22;54190;49.770;9.250;2023-05-20T04:34:13;13.50;99.90
67273;DHT22;54190;49.770;9.250;2023-05-20T04:36:40;13.40;99.90
67273;DHT22;54190;49.770;9.250;2023-05-20T04:39:06;13.50;99.90
67273;DHT22;54190;49.770;9.250;2023-05-20T04:41:32;13.50;99.90
67273;DHT22;54190;49.770;9.250;2023-05-20T04:43:58;13.50;99.90
67273;DHT22;54190;49.770;9.250;2023-05-20T04:46:26;13.60;99.90
67273;DHT22;54190;49.770;9.250;2023-05-20T04:48:52;13.60;99.90
67273;DHT22;54190;49.770;9.250;2023-05-20T04:51:19;13.60;99.90
67273;DHT22;54190;49.770;9.250;2023-05-20T04:53:44;13.60;99.90
67273;DHT22;54190;49.770;9.250;2023-05-20T04:56:11;13.60;99.90
67273;DHT22;54190;49.770;9.250;2023-05-20T04:58:36;13.60;99.90
67273;DHT22;54190;49.770;9.250;2023-05-20T05:01:02;13.70;99.90
67273;DHT22;54190;49.770;9.250;2023-05-20T05:03:28;13.70;99.90
67273;DHT22;54190;49.770;9.250;2023-05-20T05:05:56;13.70;99.90
67273;DHT22;54190;49.770;9.250;2023-05-20T05:08:22;13.70;99.90
67273;DHT22;54190;49.770;9.250;2023-05-20T05:10:50;13.70;99.90
67273;DHT22;54190;49.770;9.250;2023-05-20T05:13:16;13.70;99.90
67273;DHT22;54190;49.770;9.250;2023-05-20T05:15:41;13.70;99.90
67273;DHT22;54190;49.770;9.250;2023-05-20T05:18:07;13.70;99.90
67273;DHT22;54190;49.770;9.250;2023-05-20T05:20:34;13.70;99.90
67273;DHT22;54190;49.770;9.250;2023-05-20T05:23:00;13.70;99.90
67273;DHT22;54190;49.770;9.250;2023-05-20T05:25:26;13.70;99.90
67273;DHT22;54190;49.770;9.250;2023-05-20T05:27:51;13.70;99.90
67273;DHT22;54190;49.770;9.250;2023-05-20T05:30:19;13.70;99.90
67273;DHT22;54190;49.770;9.250;2023-05-20T05:32:46;13.70;99.90
67273;DHT22;54190;49.770;9.250;2023-05-20T05:35:12;13.70;99.90
67273;DHT22;54190;49.770;9.250;2023-05-20T05:37:38;13.70;99.90
67273;DHT22;54190;49.770;9.250;2023-05-20T05:40:05;13.70;99.90
67273;DHT22;54190;49.770;9.250;2023-05-20T05:42:31;13.70;99.90
67273;DHT22;54190;49.770;9.250;2023-05-20T05:44:56;13.70;99.90
67273;DHT22;54190;49.770;9.250;2023-05-20T05:47:22;13.70;99.90
67273;DHT22;54190;49.770;9.250;2023-05-20T05:49:48;13.70;99.90
67273;DHT22;54190;49.770;9.250;2023-05-20T05:52:14;13.70;99.90
67273;DHT22;54190;49.770;9.250;2023-05-20T05:54:41;13.70;99.90
67273;DHT22;54190;49.770;9.250;2023-05-20T05:57:06;13.90;99.90
67273;DHT22;54190;49.770;9.250;2023-05-20T05:59:34;13.90;99.90
67273;DHT22;54190;49.770;9.250;2023-05-20T06:02:00;13.90;99.90
67273;DHT22;54190;49.770;9.250;2023-05-20T06:04:26;14.00;99.90
67273;DHT22;54190;49.770;9.250;2023-05-20T06:06:54;14.10;99.90
67273;DHT22;54190;49.770;9.250;2023-05-20T06:09:20;14.20;99.90
67273;DHT22;54190;49.770;9.250;2023-05-20T06:11:46;14.30;99.90
67273;DHT22;54190;49.770;9.250;2023-05-20T06:14:11;14.50;99.90
67273;DHT22;54190;49.770;9.250;2023-05-20T06:16:38;14.70;99.90
67273;DHT22;54190;49.770;9.250;2023-05-20T06:19:03;14.90;99.90
67273;DHT22;54190;49.770;9.250;2023-05-20T06:21:31;14.90;99.90
67273;DHT22;54190;49.770;9.250;2023-05-20T06:23:57;14.90;99.90
67273;DHT22;54190;49.770;9.250;2023-05-20T06:26:22;15.00;99.90
67273;DHT22;54190;49.770;9.250;2023-05-20T06:28:48;15.00;99.90
67273;DHT22;54190;49.770;9.250;2023-05-20T06:31:14;15.10;99.90
67273;DHT22;54190;49.770;9.250;2023-05-20T06:33:39;15.10;99.90
67273;DHT22;54190;49.770;9.250;2023-05-20T06:36:08;15.30;99.90
67273;DHT22;54190;49.770;9.250;2023-05-20T06:38:34;15.30;99.90
67273;DHT22;54190;49.770;9.250;2023-05-20T06:41:00;15.30;99.90
67273;DHT22;54190;49.770;9.250;2023-05-20T06:43:26;15.30;99.90
67273;DHT22;54190;49.770;9.250;2023-05-20T06:46:13;15.30;99.90
67273;DHT22;54190;49.770;9.250;2023-05-20T06:48:51;15.30;99.90
67273;DHT22;54190;49.770;9.250;2023-05-20T06:51:17;15.40;99.90
67273;DHT22;54190;49.770;9.250;2023-05-20T06:53:45;15.50;99.90
67273;DHT22;54190;49.770;9.250;2023-05-20T06:56:11;15.40;99.90
67273;DHT22;54190;49.770;9.250;2023-05-20T06:58:37;15.40;99.90
67273;DHT22;54190;49.770;9.250;2023-05-20T07:01:03;15.40;99.90
67273;DHT22;54190;49.770;9.250;2023-05-20T07:03:29;15.50;99.90
67273;DHT22;54190;49.770;9.250;2023-05-20T07:05:55;15.40;99.90
67273;DHT22;54190;49.770;9.250;2023-05-20T07:08:22;15.60;99.90
67273;DHT22;54190;49.770;9.250;2023-05-20T07:10:47;15.60;99.90
67273;DHT22;54190;49.770;9.250;2023-05-20T07:13:17;15.70;99.90
67273;DHT22;54190;49.770;9.250;2023-05-20T07:15:45;15.80;99.90
67273;DHT22;54190;49.770;9.250;2023-05-20T07:18:12;15.90;99.90
67273;DHT22;54190;49.770;9.250;2023-05-20T07:20:38;16.00;99.90
67273;DHT22;54190;49.770;9.250;2023-05-20T07:23:09;16.00;99.90
67273;DHT22;54190;49.770;9.250;2023-05-20T07:25:43;16.00;99.90
67273;DHT22;54190;49.770;9.250;2023-05-20T07:28:08;16.20;99.90
67273;DHT22;54190;49.770;9.250;2023-05-20T07:30:34;16.30;99.90
67273;DHT22;54190;49.770;9.250;2023-05-20T07:33:18;16.30;99.90
67273;DHT22;54190;49.770;9.250;2023-05-20T07:35:44;16.40;99.90
67273;DHT22;54190;49.770;9.250;2023-05-20T07:38:11;16.60;99.90
67273;DHT22;54190;49.770;9.250;2023-05-20T07:40:38;16.80;99.90
67273;DHT22;54190;49.770;9.250;2023-05-20T07:43:06;16.90;99.90
67273;DHT22;54190;49.770;9.250;2023-05-20T07:45:34;17.10;99.90
67273;DHT22;54190;49.770;9.250;2023-05-20T07:48:01;17.10;99.90
67273;DHT22;54190;49.770;9.250;2023-05-20T07:50:27;17.10;99.90
67273;DHT22;54190;49.770;9.250;2023-05-20T07:52:53;17.20;99.90
67273;DHT22;54190;49.770;9.250;2023-05-20T07:55:19;17.20;99.90
67273;DHT22;54190;49.770;9.250;2023-05-20T07:57:45;17.10;99.90
67273;DHT22;54190;49.770;9.250;2023-05-20T08:00:11;17.20;99.90
67273;DHT22;54190;49.770;9.250;2023-05-20T08:02:42;17.30;99.90
67273;DHT22;54190;49.770;9.250;2023-05-20T08:05:09;17.30;99.90
67273;DHT22;54190;49.770;9.250;2023-05-20T08:07:35;17.30;99.90
67273;DHT22;54190;49.770;9.250;2023-05-20T08:10:01;17.40;99.90
67273;DHT22;54190;49.770;9.250;2023-05-20T08:12:27;17.40;99.90
67273;DHT22;54190;49.770;9.250;2023-05-20T08:14:53;17.40;99.90
67273;DHT22;54190;49.770;9.250;2023-05-20T08:17:18;17.40;99.90
67273;DHT22;54190;49.770;9.250;2023-05-20T08:19:44;17.60;99.90
67273;DHT22;54190;49.770;9.250;2023-05-20T08:22:12;17.70;99.90
67273;DHT22;54190;49.770;9.250;2023-05-20T08:24:38;17.80;99.90
67273;DHT22;54190;49.770;9.250;2023-05-20T08:27:04;17.80;99.90
67273;DHT22;54190;49.770;9.250;2023-05-20T08:29:31;17.90;99.90
67273;DHT22;54190;49.770;9.250;2023-05-20T08:31:58;17.90;99.90
67273;DHT22;54190;49.770;9.250;2023-05-20T08:34:25;18.00;99.90
67273;DHT22;54190;49.770;9.250;2023-05-20T08:36:51;18.10;99.90
67273;DHT22;54190;49.770;9.250;2023-05-20T08:39:17;18.20;99.90
67273;DHT22;54190;49.770;9.250;2023-05-20T08:41:45;18.30;99.90
67273;DHT22;54190;49.770;9.250;2023-05-20T08:44:11;18.10;99.90
67273;DHT22;54190;49.770;9.250;2023-05-20T08:46:38;18.00;99.90
67273;DHT22;54190;49.770;9.250;2023-05-20T08:49:05;18.00;99.90
67273;DHT22;54190;49.770;9.250;2023-05-20T08:51:32;18.30;99.90
67273;DHT22;54190;49.770;9.250;2023-05-20T08:54:01;18.60;99.90
67273;DHT22;54190;49.770;9.250;2023-05-20T08:56:27;18.60;99.90
67273;DHT22;54190;49.770;9.250;2023-05-20T08:58:53;18.70;99.90
67273;DHT22;54190;49.770;9.250;2023-05-20T09:01:23;18.80;99.60
67273;DHT22;54190;49.770;9.250;2023-05-20T09:03:50;18.90;99.80
67273;DHT22;54190;49.770;9.250;2023-05-20T09:06:16;19.00;99.70
67273;DHT22;54190;49.770;9.250;2023-05-20T09:08:45;18.70;99.70
67273;DHT22;54190;49.770;9.250;2023-05-20T09:11:12;18.70;99.90
67273;DHT22;54190;49.770;9.250;2023-05-20T09:13:38;18.90;99.90
67273;DHT22;54190;49.770;9.250;2023-05-20T09:16:04;19.10;99.90
67273;DHT22;54190;49.770;9.250;2023-05-20T09:18:29;19.30;99.90
67273;DHT22;54190;49.770;9.250;2023-05-20T09:20:56;19.40;99.40
67273;DHT22;54190;49.770;9.250;2023-05-20T09:23:22;19.30;99.60
67273;DHT22;54190;49.770;9.250;2023-05-20T09:25:50;19.10;98.90
67273;DHT22;54190;49.770;9.250;2023-05-20T09:28:18;19.20;99.50
67273;DHT22;54190;49.770;9.250;2023-05-20T09:30:47;19.40;99.90
67273;DHT22;54190;49.770;9.250;2023-05-20T09:33:13;19.60;99.90
67273;DHT22;54190;49.770;9.250;2023-05-20T09:35:38;19.70;98.20
67273;DHT22;54190;49.770;9.250;2023-05-20T09:38:05;19.50;99.70
67273;DHT22;54190;49.770;9.250;2023-05-20T09:40:34;19.60;99.60
67273;DHT22;54190;49.770;9.250;2023-05-20T09:43:06;19.50;99.90
67273;DHT22;54190;49.770;9.250;2023-05-20T09:45:32;19.40;99.80
67273;DHT22;54190;49.770;9.250;2023-05-20T09:47:59;19.30;99.90
67273;DHT22;54190;49.770;9.250;2023-05-20T09:50:26;19.40;99.90
67273;DHT22;54190;49.770;9.250;2023-05-20T09:52:53;19.60;99.90
67273;DHT22;54190;49.770;9.250;2023-05-20T09:55:21;19.60;98.30
67273;DHT22;54190;49.770;9.250;2023-05-20T09:57:47;19.50;99.10
67273;DHT22;54190;49.770;9.250;2023-05-20T10:00:14;19.40;99.60
67273;DHT22;54190;49.770;9.250;2023-05-20T10:02:49;19.50;99.70
67273;DHT22;54190;49.770;9.250;2023-05-20T10:05:24;19.60;98.80
67273;DHT22;54190;49.770;9.250;2023-05-20T10:16:53;20.00;99.90
67273;DHT22;54190;49.770;9.250;2023-05-20T10:21:56;20.70;97.10
67273;DHT22;54190;49.770;9.250;2023-05-20T10:24:32;20.90;97.00
67273;DHT22;54190;49.770;9.250;2023-05-20T10:27:00;21.10;96.30
67273;DHT22;54190;49.770;9.250;2023-05-20T10:29:25;20.90;95.60
67273;DHT22;54190;49.770;9.250;2023-05-20T10:31:52;20.50;96.00
67273;DHT22;54190;49.770;9.250;2023-05-20T10:34:19;20.50;96.50
67273;DHT22;54190;49.770;9.250;2023-05-20T10:39:26;20.30;98.10
67273;DHT22;54190;49.770;9.250;2023-05-20T10:41:52;20.60;97.30
67273;DHT22;54190;49.770;9.250;2023-05-20T10:44:39;20.70;97.00
67273;DHT22;54190;49.770;9.250;2023-05-20T10:47:05;20.60;96.40
67273;DHT22;54190;49.770;9.250;2023-05-20T10:49:34;20.40;96.70
67273;DHT22;54190;49.770;9.250;2023-05-20T10:52:00;20.40;96.30
67273;DHT22;54190;49.770;9.250;2023-05-20T10:54:26;20.50;96.40
67273;DHT22;54190;49.770;9.250;2023-05-20T10:56:54;20.50;96.10
67273;DHT22;54190;49.770;9.250;2023-05-20T10:59:20;20.60;97.20
67273;DHT22;54190;49.770;9.250;2023-05-20T11:01:46;20.90;97.20
67273;DHT22;54190;49.770;9.250;2023-05-20T11:04:14;21.10;94.00
67273;DHT22;54190;49.770;9.250;2023-05-20T11:06:49;20.90;96.10
67273;DHT22;54190;49.770;9.250;2023-05-20T11:09:15;21.10;94.90
67273;DHT22;54190;49.770;9.250;2023-05-20T11:11:41;21.20;94.40
67273;DHT22;54190;49.770;9.250;2023-05-20T11:14:07;21.30;94.50
67273;DHT22;54190;49.770;9.250;2023-05-20T11:16:38;21.10;94.50
67273;DHT22;54190;49.770;9.250;2023-05-20T11:19:15;21.00;93.30
67273;DHT22;54190;49.770;9.250;2023-05-20T11:21:44;20.60;94.00
67273;DHT22;54190;49.770;9.250;2023-05-20T11:24:11;20.60;94.40
67273;DHT22;54190;49.770;9.250;2023-05-20T11:26:37;20.60;95.30
67273;DHT22;54190;49.770;9.250;2023-05-20T11:29:03;20.50;94.50
67273;DHT22;54190;49.770;9.250;2023-05-20T11:31:30;20.40;94.80
67273;DHT22;54190;49.770;9.250;2023-05-20T11:33:59;20.50;95.90
67273;DHT22;54190;49.770;9.250;2023-05-20T11:36:26;20.60;94.90
67273;DHT22;54190;49.770;9.250;2023-05-20T11:38:53;20.90;94.90
67273;DHT22;54190;49.770;9.250;2023-05-20T11:41:25;21.00;94.20
67273;DHT22;54190;49.770;9.250;2023-05-20T11:43:56;21.10;95.60
67273;DHT22;54190;49.770;9.250;2023-05-20T11:46:22;21.20;94.70
67273;DHT22;54190;49.770;9.250;2023-05-20T11:48:52;21.30;96.00
67273;DHT22;54190;49.770;9.250;2023-05-20T11:51:28;21.20;94.30
67273;DHT22;54190;49.770;9.250;2023-05-20T11:54:05;21.10;95.00
67273;DHT22;54190;49.770;9.250;2023-05-20T11:56:33;20.90;95.20
67273;DHT22;54190;49.770;9.250;2023-05-20T11:58:59;20.90;95.00
67273;DHT22;54190;49.770;9.250;2023-05-20T12:01:28;21.00;94.90
67273;DHT22;54190;49.770;9.250;2023-05-20T12:03:54;21.00;95.20
67273;DHT22;54190;49.770;9.250;2023-05-20T12:06:20;21.20;96.10
67273;DHT22;54190;49.770;9.250;2023-05-20T12:08:45;21.50;94.20
67273;DHT22;54190;49.770;9.250;2023-05-20T12:11:12;21.80;94.00
67273;DHT22;54190;49.770;9.250;2023-05-20T12:13:39;22.00;92.40
67273;DHT22;54190;49.770;9.250;2023-05-20T12:16:05;22.00;92.90
67273;DHT22;54190;49.770;9.250;2023-05-20T12:18:31;21.90;93.40
67273;DHT22;54190;49.770;9.250;2023-05-20T12:20:58;22.10;95.20
67273;DHT22;54190;49.770;9.250;2023-05-20T12:23:23;21.90;93.50
67273;DHT22;54190;49.770;9.250;2023-05-20T12:25:49;21.70;93.00
67273;DHT22;54190;49.770;9.250;2023-05-20T12:28:16;21.50;93.80
67273;DHT22;54190;49.770;9.250;2023-05-20T12:30:42;21.30;93.90
67273;DHT22;54190;49.770;9.250;2023-05-20T12:33:08;21.10;94.80
67273;DHT22;54190;49.770;9.250;2023-05-20T12:35:41;21.10;93.80
67273;DHT22;54190;49.770;9.250;2023-05-20T12:38:07;21.30;94.60
67273;DHT22;54190;49.770;9.250;2023-05-20T12:40:34;21.40;93.80
67273;DHT22;54190;49.770;9.250;2023-05-20T12:43:04;21.30;93.50
67273;DHT22;54190;49.770;9.250;2023-05-20T12:45:30;21.20;93.90
67273;DHT22;54190;49.770;9.250;2023-05-20T12:47:56;21.30;93.60
67273;DHT22;54190;49.770;9.250;2023-05-20T12:50:23;21.20;92.70
67273;DHT22;54190;49.770;9.250;2023-05-20T12:52:48;21.20;93.50
67273;DHT22;54190;49.770;9.250;2023-05-20T12:55:14;21.50;93.20
67273;DHT22;54190;49.770;9.250;2023-05-20T12:57:44;21.60;93.90
67273;DHT22;54190;49.770;9.250;2023-05-20T13:00:10;21.60;92.30
67273;DHT22;54190;49.770;9.250;2023-05-20T13:02:38;21.50;93.60
67273;DHT22;54190;49.770;9.250;2023-05-20T13:05:04;21.50;92.50
67273;DHT22;54190;49.770;9.250;2023-05-20T13:07:31;21.70;94.40
67273;DHT22;54190;49.770;9.250;2023-05-20T13:09:58;21.90;94.00
67273;DHT22;54190;49.770;9.250;2023-05-20T13:12:23;21.90;94.10
67273;DHT22;54190;49.770;9.250;2023-05-20T13:14:49;21.90;94.20
67273;DHT22;54190;49.770;9.250;2023-05-20T13:17:15;21.90;94.60
67273;DHT22;54190;49.770;9.250;2023-05-20T13:19:40;21.70;94.70
67273;DHT22;54190;49.770;9.250;2023-05-20T13:22:06;21.60;94.60
67273;DHT22;54190;49.770;9.250;2023-05-20T13:24:33;21.30;93.50
67273;DHT22;54190;49.770;9.250;2023-05-20T13:26:59;21.20;94.50
67273;DHT22;54190;49.770;9.250;2023-05-20T13:29:26;21.30;94.00
67273;DHT22;54190;49.770;9.250;2023-05-20T13:31:52;21.50;93.50
67273;DHT22;54190;49.770;9.250;2023-05-20T13:34:18;21.80;94.60
67273;DHT22;54190;49.770;9.250;2023-05-20T13:36:43;21.90;93.40
67273;DHT22;54190;49.770;9.250;2023-05-20T13:39:10;22.00;94.10
67273;DHT22;54190;49.770;9.250;2023-05-20T13:41:35;21.90;93.10
67273;DHT22;54190;49.770;9.250;2023-05-20T13:44:01;21.70;92.50
67273;DHT22;54190;49.770;9.250;2023-05-20T13:46:27;21.50;93.60
67273;DHT22;54190;49.770;9.250;2023-05-20T13:48:53;21.60;93.70
67273;DHT22;54190;49.770;9.250;2023-05-20T13:51:18;21.70;92.60
67273;DHT22;54190;49.770;9.250;2023-05-20T13:53:44;21.90;93.60
67273;DHT22;54190;49.770;9.250;2023-05-20T13:56:10;22.20;93.20
67273;DHT22;54190;49.770;9.250;2023-05-20T13:58:36;22.50;94.00
67273;DHT22;54190;49.770;9.250;2023-05-20T14:01:03;22.70;92.60
67273;DHT22;54190;49.770;9.250;2023-05-20T14:03:30;22.80;91.00
67273;DHT22;54190;49.770;9.250;2023-05-20T14:05:56;22.90;90.90
67273;DHT22;54190;49.770;9.250;2023-05-20T14:08:21;22.90;90.50
67273;DHT22;54190;49.770;9.250;2023-05-20T14:10:47;22.80;91.40
67273;DHT22;54190;49.770;9.250;2023-05-20T14:13:13;22.50;91.80
67273;DHT22;54190;49.770;9.250;2023-05-20T14:15:39;22.30;92.70
67273;DHT22;54190;49.770;9.250;2023-05-20T14:18:05;22.20;92.30
67273;DHT22;54190;49.770;9.250;2023-05-20T14:20:31;21.90;92.90
67273;DHT22;54190;49.770;9.250;2023-05-20T14:22:56;21.80;93.00
67273;DHT22;54190;49.770;9.250;2023-05-20T14:25:22;21.60;92.80
67273;DHT22;54190;49.770;9.250;2023-05-20T14:27:48;21.40;93.10
67273;DHT22;54190;49.770;9.250;2023-05-20T14:30:14;21.40;93.30
67273;DHT22;54190;49.770;9.250;2023-05-20T14:32:40;21.20;93.10
67273;DHT22;54190;49.770;9.250;2023-05-20T14:35:06;21.20;93.70
67273;DHT22;54190;49.770;9.250;2023-05-20T14:37:32;21.20;93.80
67273;DHT22;54190;49.770;9.250;2023-05-20T14:39:57;21.20;93.10
67273;DHT22;54190;49.770;9.250;2023-05-20T14:42:23;21.30;93.50
67273;DHT22;54190;49.770;9.250;2023-05-20T14:44:49;21.60;94.30
67273;DHT22;54190;49.770;9.250;2023-05-20T14:47:14;21.70;93.60
67273;DHT22;54190;49.770;9.250;2023-05-20T14:49:44;21.80;93.40
67273;DHT22;54190;49.770;9.250;2023-05-20T14:52:10;21.70;92.90
67273;DHT22;54190;49.770;9.250;2023-05-20T14:54:36;21.70;93.90
67273;DHT22;54190;49.770;9.250;2023-05-20T14:57:02;21.80;93.60
67273;DHT22;54190;49.770;9.250;2023-05-20T14:59:30;21.90;93.00
67273;DHT22;54190;49.770;9.250;2023-05-20T15:01:56;21.70;92.30
67273;DHT22;54190;49.770;9.250;2023-05-20T15:04:22;21.60;93.10
67273;DHT22;54190;49.770;9.250;2023-05-20T15:06:47;21.60;92.90
67273;DHT22;54190;49.770;9.250;2023-05-20T15:09:13;21.40;92.20
67273;DHT22;54190;49.770;9.250;2023-05-20T15:11:39;21.30;93.30
67273;DHT22;54190;49.770;9.250;2023-05-20T15:14:05;21.20;92.20
67273;DHT22;54190;49.770;9.250;2023-05-20T15:16:30;21.30;93.20
67273;DHT22;54190;49.770;9.250;2023-05-20T15:18:56;21.30;93.70
67273;DHT22;54190;49.770;9.250;2023-05-20T15:21:21;21.30;93.70
67273;DHT22;54190;49.770;9.250;2023-05-20T15:23:47;21.40;93.60
67273;DHT22;54190;49.770;9.250;2023-05-20T15:26:13;21.50;93.70
67273;DHT22;54190;49.770;9.250;2023-05-20T15:28:39;21.50;93.90
67273;DHT22;54190;49.770;9.250;2023-05-20T15:31:04;21.60;94.40
67273;DHT22;54190;49.770;9.250;2023-05-20T15:33:30;21.60;92.60
67273;DHT22;54190;49.770;9.250;2023-05-20T15:35:56;21.40;93.30
67273;DHT22;54190;49.770;9.250;2023-05-20T15:38:21;21.50;93.10
67273;DHT22;54190;49.770;9.250;2023-05-20T15:40:47;21.70;92.70